Somerset, Colorado
Current Conditions -  °F | °C
As of 7:35 PM on Sunday 21 Dec 2014 (Local Time) from KAJZ Reporting Station
Overcast Overcast  
Wind Chill: 29°   Ceiling: 1500
Heat Index: 34°   Visibility: 10mi
Dew Point: 32°   Wind: 5mph
Humidity: 94%   Direction: 360°N
Pressure: 29.91"   Gusts: NA
Location:  38.93°N, 107.47°W
Report Text: KAJZ 220235Z AUTO 36004KT 10SM OVC015 01/00 A2991 RMK AO2 T00090000
Loading
Personal Weather Stations






























Interactive Weather Map New forecast layout! Learn more

10-Day Weather Forecast

Advertisements
Track Severe Weather on mobile